sensor_id;sensor_type;location;lat;lon;timestamp;temperature;humidity
26182;DHT22;13927;51.534;11.866;2023-05-10T00:01:40;10.70;99.90
26182;DHT22;13927;51.534;11.866;2023-05-10T00:04:08;10.70;99.90
26182;DHT22;13927;51.534;11.866;2023-05-10T00:06:34;10.60;99.90
26182;DHT22;13927;51.534;11.866;2023-05-10T00:09:00;10.60;99.90
26182;DHT22;13927;51.534;11.866;2023-05-10T00:11:27;10.60;99.90
26182;DHT22;13927;51.534;11.866;2023-05-10T00:13:52;10.50;99.90
26182;DHT22;13927;51.534;11.866;2023-05-10T00:16:18;10.50;99.90
26182;DHT22;13927;51.534;11.866;2023-05-10T00:18:44;10.50;99.90
26182;DHT22;13927;51.534;11.866;2023-05-10T00:21:09;10.50;99.90
26182;DHT22;13927;51.534;11.866;2023-05-10T00:23:35;10.40;99.90
26182;DHT22;13927;51.534;11.866;2023-05-10T00:26:02;10.40;99.90
26182;DHT22;13927;51.534;11.866;2023-05-10T00:28:28;10.30;99.90
26182;DHT22;13927;51.534;11.866;2023-05-10T00:30:54;10.30;99.90
26182;DHT22;13927;51.534;11.866;2023-05-10T00:33:20;10.20;99.90
26182;DHT22;13927;51.534;11.866;2023-05-10T00:35:46;10.20;99.90
26182;DHT22;13927;51.534;11.866;2023-05-10T00:38:12;10.10;99.90
26182;DHT22;13927;51.534;11.866;2023-05-10T00:40:38;10.10;99.90
26182;DHT22;13927;51.534;11.866;2023-05-10T00:43:03;10.10;99.90
26182;DHT22;13927;51.534;11.866;2023-05-10T00:45:31;10.00;99.90
26182;DHT22;13927;51.534;11.866;2023-05-10T00:48:01;9.90;99.90
26182;DHT22;13927;51.534;11.866;2023-05-10T00:50:28;9.90;99.90
26182;DHT22;13927;51.534;11.866;2023-05-10T00:52:54;9.80;99.90
26182;DHT22;13927;51.534;11.866;2023-05-10T00:55:20;9.90;99.90
26182;DHT22;13927;51.534;11.866;2023-05-10T00:57:46;9.80;99.90
26182;DHT22;13927;51.534;11.866;2023-05-10T01:00:12;9.80;99.90
26182;DHT22;13927;51.534;11.866;2023-05-10T01:02:43;9.80;99.90
26182;DHT22;13927;51.534;11.866;2023-05-10T01:05:09;9.80;99.90
26182;DHT22;13927;51.534;11.866;2023-05-10T01:07:35;9.80;99.90
26182;DHT22;13927;51.534;11.866;2023-05-10T01:10:01;9.70;99.90
26182;DHT22;13927;51.534;11.866;2023-05-10T01:12:27;9.80;99.90
26182;DHT22;13927;51.534;11.866;2023-05-10T01:14:53;9.80;99.90
26182;DHT22;13927;51.534;11.866;2023-05-10T01:17:20;9.80;99.90
26182;DHT22;13927;51.534;11.866;2023-05-10T01:19:47;9.70;99.90
26182;DHT22;13927;51.534;11.866;2023-05-10T01:22:27;9.70;99.90
26182;DHT22;13927;51.534;11.866;2023-05-10T01:28:35;9.70;99.90
26182;DHT22;13927;51.534;11.866;2023-05-10T01:35:04;9.70;99.90
26182;DHT22;13927;51.534;11.866;2023-05-10T01:40:32;9.60;99.90
26182;DHT22;13927;51.534;11.866;2023-05-10T01:43:04;9.60;99.90
26182;DHT22;13927;51.534;11.866;2023-05-10T01:45:47;9.60;99.90
26182;DHT22;13927;51.534;11.866;2023-05-10T01:48:21;9.60;99.90
26182;DHT22;13927;51.534;11.866;2023-05-10T01:50:58;9.60;99.90
26182;DHT22;13927;51.534;11.866;2023-05-10T01:53:24;9.60;99.90
26182;DHT22;13927;51.534;11.866;2023-05-10T01:55:59;9.50;99.90
26182;DHT22;13927;51.534;11.866;2023-05-10T01:58:32;9.50;99.90
26182;DHT22;13927;51.534;11.866;2023-05-10T02:01:01;9.50;99.90
26182;DHT22;13927;51.534;11.866;2023-05-10T02:03:31;9.50;99.90
26182;DHT22;13927;51.534;11.866;2023-05-10T02:05:57;9.50;99.90
26182;DHT22;13927;51.534;11.866;2023-05-10T02:08:24;9.50;99.90
26182;DHT22;13927;51.534;11.866;2023-05-10T02:10:54;9.50;99.90
26182;DHT22;13927;51.534;11.866;2023-05-10T02:13:23;9.40;99.90
26182;DHT22;13927;51.534;11.866;2023-05-10T02:15:49;9.40;99.90
26182;DHT22;13927;51.534;11.866;2023-05-10T02:18:16;9.50;99.90
26182;DHT22;13927;51.534;11.866;2023-05-10T02:20:45;9.50;99.90
26182;DHT22;13927;51.534;11.866;2023-05-10T02:23:12;9.50;99.90
26182;DHT22;13927;51.534;11.866;2023-05-10T02:25:39;9.50;99.90
26182;DHT22;13927;51.534;11.866;2023-05-10T02:28:06;9.50;99.90
26182;DHT22;13927;51.534;11.866;2023-05-10T02:30:33;9.50;99.90
26182;DHT22;13927;51.534;11.866;2023-05-10T02:33:00;9.50;99.90
26182;DHT22;13927;51.534;11.866;2023-05-10T02:35:28;9.50;99.90
26182;DHT22;13927;51.534;11.866;2023-05-10T02:37:56;9.50;99.90
26182;DHT22;13927;51.534;11.866;2023-05-10T02:40:24;9.50;99.90
26182;DHT22;13927;51.534;11.866;2023-05-10T02:42:53;9.50;99.90
26182;DHT22;13927;51.534;11.866;2023-05-10T02:45:23;9.50;99.90
26182;DHT22;13927;51.534;11.866;2023-05-10T02:47:52;9.50;99.90
26182;DHT22;13927;51.534;11.866;2023-05-10T02:50:18;9.40;99.90
26182;DHT22;13927;51.534;11.866;2023-05-10T02:52:50;9.40;99.90
26182;DHT22;13927;51.534;11.866;2023-05-10T02:55:27;9.40;99.90
26182;DHT22;13927;51.534;11.866;2023-05-10T02:58:00;9.40;99.90
26182;DHT22;13927;51.534;11.866;2023-05-10T03:00:26;9.40;99.90
26182;DHT22;13927;51.534;11.866;2023-05-10T03:02:52;9.30;99.90
26182;DHT22;13927;51.534;11.866;2023-05-10T03:05:19;9.30;99.90
26182;DHT22;13927;51.534;11.866;2023-05-10T03:07:46;9.30;99.90
26182;DHT22;13927;51.534;11.866;2023-05-10T03:10:12;9.30;99.90
26182;DHT22;13927;51.534;11.866;2023-05-10T03:12:41;9.30;99.90
26182;DHT22;13927;51.534;11.866;2023-05-10T03:15:37;9.30;99.90
26182;DHT22;13927;51.534;11.866;2023-05-10T03:18:28;9.30;99.90
26182;DHT22;13927;51.534;11.866;2023-05-10T03:21:01;9.30;99.90
26182;DHT22;13927;51.534;11.866;2023-05-10T03:23:43;9.20;99.90
26182;DHT22;13927;51.534;11.866;2023-05-10T03:26:19;9.20;99.90
26182;DHT22;13927;51.534;11.866;2023-05-10T03:28:47;9.20;99.90
26182;DHT22;13927;51.534;11.866;2023-05-10T03:31:14;9.20;99.90
26182;DHT22;13927;51.534;11.866;2023-05-10T03:33:51;9.20;99.90
26182;DHT22;13927;51.534;11.866;2023-05-10T03:36:17;9.20;99.90
26182;DHT22;13927;51.534;11.866;2023-05-10T03:38:43;9.20;99.90
26182;DHT22;13927;51.534;11.866;2023-05-10T03:41:09;9.30;99.90
26182;DHT22;13927;51.534;11.866;2023-05-10T03:43:35;9.30;99.90
26182;DHT22;13927;51.534;11.866;2023-05-10T03:46:03;9.30;99.90
26182;DHT22;13927;51.534;11.866;2023-05-10T03:48:30;9.30;99.90
26182;DHT22;13927;51.534;11.866;2023-05-10T03:50:56;9.30;99.90
26182;DHT22;13927;51.534;11.866;2023-05-10T03:53:21;9.40;99.90
26182;DHT22;13927;51.534;11.866;2023-05-10T03:55:48;9.40;99.90
26182;DHT22;13927;51.534;11.866;2023-05-10T03:58:14;9.50;99.90
26182;DHT22;13927;51.534;11.866;2023-05-10T04:00:40;9.60;99.90
26182;DHT22;13927;51.534;11.866;2023-05-10T04:03:11;9.60;99.90
26182;DHT22;13927;51.534;11.866;2023-05-10T04:05:37;9.70;99.90
26182;DHT22;13927;51.534;11.866;2023-05-10T04:08:03;9.80;99.90
26182;DHT22;13927;51.534;11.866;2023-05-10T04:10:29;9.80;99.90
26182;DHT22;13927;51.534;11.866;2023-05-10T04:12:55;9.90;99.90
26182;DHT22;13927;51.534;11.866;2023-05-10T04:15:21;10.00;99.90
26182;DHT22;13927;51.534;11.866;2023-05-10T04:17:47;10.00;99.90
26182;DHT22;13927;51.534;11.866;2023-05-10T04:20:13;10.10;99.90
26182;DHT22;13927;51.534;11.866;2023-05-10T04:22:38;10.20;99.90
26182;DHT22;13927;51.534;11.866;2023-05-10T04:25:05;10.30;99.90
26182;DHT22;13927;51.534;11.866;2023-05-10T04:27:31;10.40;99.90
26182;DHT22;13927;51.534;11.866;2023-05-10T04:29:57;10.50;99.90
26182;DHT22;13927;51.534;11.866;2023-05-10T04:32:23;10.60;99.90
26182;DHT22;13927;51.534;11.866;2023-05-10T04:34:49;10.70;99.90
26182;DHT22;13927;51.534;11.866;2023-05-10T04:37:16;10.80;99.90
26182;DHT22;13927;51.534;11.866;2023-05-10T04:39:42;11.00;99.90
26182;DHT22;13927;51.534;11.866;2023-05-10T04:42:08;11.00;99.90
26182;DHT22;13927;51.534;11.866;2023-05-10T04:44:34;11.20;99.90
26182;DHT22;13927;51.534;11.866;2023-05-10T04:47:00;11.30;99.90
26182;DHT22;13927;51.534;11.866;2023-05-10T04:49:27;11.40;99.90
26182;DHT22;13927;51.534;11.866;2023-05-10T04:51:54;11.50;99.90
26182;DHT22;13927;51.534;11.866;2023-05-10T04:54:19;11.60;99.90
26182;DHT22;13927;51.534;11.866;2023-05-10T04:56:46;11.70;99.90
26182;DHT22;13927;51.534;11.866;2023-05-10T04:59:11;11.80;99.90
26182;DHT22;13927;51.534;11.866;2023-05-10T05:01:37;11.90;99.90
26182;DHT22;13927;51.534;11.866;2023-05-10T05:04:03;12.00;99.90
26182;DHT22;13927;51.534;11.866;2023-05-10T05:06:29;12.10;99.90
26182;DHT22;13927;51.534;11.866;2023-05-10T05:08:55;12.20;99.90
26182;DHT22;13927;51.534;11.866;2023-05-10T05:11:20;12.30;99.90
26182;DHT22;13927;51.534;11.866;2023-05-10T05:13:46;12.40;99.90
26182;DHT22;13927;51.534;11.866;2023-05-10T05:16:12;12.50;99.90
26182;DHT22;13927;51.534;11.866;2023-05-10T05:18:38;12.50;99.90
26182;DHT22;13927;51.534;11.866;2023-05-10T05:21:14;12.50;99.90
26182;DHT22;13927;51.534;11.866;2023-05-10T05:23:40;12.50;99.90
26182;DHT22;13927;51.534;11.866;2023-05-10T05:26:06;12.60;99.90
26182;DHT22;13927;51.534;11.866;2023-05-10T05:28:32;12.70;99.90
26182;DHT22;13927;51.534;11.866;2023-05-10T05:30:59;12.80;99.90
26182;DHT22;13927;51.534;11.866;2023-05-10T05:33:24;12.90;99.90
26182;DHT22;13927;51.534;11.866;2023-05-10T05:35:50;13.00;99.90
26182;DHT22;13927;51.534;11.866;2023-05-10T05:38:16;13.10;99.90
26182;DHT22;13927;51.534;11.866;2023-05-10T05:40:42;13.30;99.90
26182;DHT22;13927;51.534;11.866;2023-05-10T05:43:08;13.40;99.90
26182;DHT22;13927;51.534;11.866;2023-05-10T05:45:34;13.50;99.90
26182;DHT22;13927;51.534;11.866;2023-05-10T05:48:00;13.60;99.90
26182;DHT22;13927;51.534;11.866;2023-05-10T05:50:26;13.70;99.90
26182;DHT22;13927;51.534;11.866;2023-05-10T05:52:51;13.80;99.90
26182;DHT22;13927;51.534;11.866;2023-05-10T05:55:18;14.00;99.90
26182;DHT22;13927;51.534;11.866;2023-05-10T05:57:44;14.10;99.90
26182;DHT22;13927;51.534;11.866;2023-05-10T06:00:10;14.30;99.90
26182;DHT22;13927;51.534;11.866;2023-05-10T06:02:37;14.40;99.90
26182;DHT22;13927;51.534;11.866;2023-05-10T06:05:03;14.50;99.90
26182;DHT22;13927;51.534;11.866;2023-05-10T06:07:30;14.70;99.90
26182;DHT22;13927;51.534;11.866;2023-05-10T06:09:56;14.80;99.90
26182;DHT22;13927;51.534;11.866;2023-05-10T06:12:23;15.00;99.90
26182;DHT22;13927;51.534;11.866;2023-05-10T06:14:49;15.10;99.90
26182;DHT22;13927;51.534;11.866;2023-05-10T06:17:15;15.20;99.90
26182;DHT22;13927;51.534;11.866;2023-05-10T06:19:42;15.40;99.90
26182;DHT22;13927;51.534;11.866;2023-05-10T06:22:08;15.50;99.90
26182;DHT22;13927;51.534;11.866;2023-05-10T06:24:34;15.70;99.90
26182;DHT22;13927;51.534;11.866;2023-05-10T06:27:00;15.80;99.90
26182;DHT22;13927;51.534;11.866;2023-05-10T06:29:27;15.90;99.90
26182;DHT22;13927;51.534;11.866;2023-05-10T06:31:53;15.90;99.90
26182;DHT22;13927;51.534;11.866;2023-05-10T06:34:19;15.90;99.90
26182;DHT22;13927;51.534;11.866;2023-05-10T06:36:46;15.80;99.90
26182;DHT22;13927;51.534;11.866;2023-05-10T06:39:12;15.90;99.90
26182;DHT22;13927;51.534;11.866;2023-05-10T06:41:38;15.90;99.90
26182;DHT22;13927;51.534;11.866;2023-05-10T06:44:04;15.90;99.90
26182;DHT22;13927;51.534;11.866;2023-05-10T06:46:30;15.90;99.90
26182;DHT22;13927;51.534;11.866;2023-05-10T06:48:56;15.90;99.90
26182;DHT22;13927;51.534;11.866;2023-05-10T06:51:22;15.80;99.90
26182;DHT22;13927;51.534;11.866;2023-05-10T06:53:48;15.80;99.90
26182;DHT22;13927;51.534;11.866;2023-05-10T06:56:15;15.80;99.90
26182;DHT22;13927;51.534;11.866;2023-05-10T06:58:41;15.80;99.90
26182;DHT22;13927;51.534;11.866;2023-05-10T07:01:07;15.80;99.90
26182;DHT22;13927;51.534;11.866;2023-05-10T07:03:33;15.80;99.90
26182;DHT22;13927;51.534;11.866;2023-05-10T07:06:01;15.90;99.90
26182;DHT22;13927;51.534;11.866;2023-05-10T07:08:31;15.80;99.90
26182;DHT22;13927;51.534;11.866;2023-05-10T07:11:04;15.80;99.90
26182;DHT22;13927;51.534;11.866;2023-05-10T07:13:31;15.70;99.90
26182;DHT22;13927;51.534;11.866;2023-05-10T07:15:58;15.70;99.90
26182;DHT22;13927;51.534;11.866;2023-05-10T07:18:24;15.70;99.90
26182;DHT22;13927;51.534;11.866;2023-05-10T07:20:50;15.60;99.90
26182;DHT22;13927;51.534;11.866;2023-05-10T07:23:16;15.60;99.90
26182;DHT22;13927;51.534;11.866;2023-05-10T07:25:46;15.50;99.90
26182;DHT22;13927;51.534;11.866;2023-05-10T07:28:14;15.50;99.90
26182;DHT22;13927;51.534;11.866;2023-05-10T07:30:40;15.40;99.90
26182;DHT22;13927;51.534;11.866;2023-05-10T07:33:06;15.30;99.90
26182;DHT22;13927;51.534;11.866;2023-05-10T07:35:34;15.30;99.90
26182;DHT22;13927;51.534;11.866;2023-05-10T07:38:00;15.30;99.90
26182;DHT22;13927;51.534;11.866;2023-05-10T07:40:27;15.20;99.90
26182;DHT22;13927;51.534;11.866;2023-05-10T07:42:54;15.30;99.90
26182;DHT22;13927;51.534;11.866;2023-05-10T07:45:20;15.20;99.90
26182;DHT22;13927;51.534;11.866;2023-05-10T07:47:47;15.20;99.90
26182;DHT22;13927;51.534;11.866;2023-05-10T07:50:13;15.20;99.90
26182;DHT22;13927;51.534;11.866;2023-05-10T07:52:39;15.30;99.90
26182;DHT22;13927;51.534;11.866;2023-05-10T07:55:06;15.30;99.90
26182;DHT22;13927;51.534;11.866;2023-05-10T07:57:36;15.40;99.90
26182;DHT22;13927;51.534;11.866;2023-05-10T08:00:02;15.50;99.90
26182;DHT22;13927;51.534;11.866;2023-05-10T08:02:29;15.60;99.90
26182;DHT22;13927;51.534;11.866;2023-05-10T08:04:55;15.70;99.90
26182;DHT22;13927;51.534;11.866;2023-05-10T08:07:21;15.90;99.90
26182;DHT22;13927;51.534;11.866;2023-05-10T08:09:48;16.00;99.90
26182;DHT22;13927;51.534;11.866;2023-05-10T08:12:14;16.10;99.90
26182;DHT22;13927;51.534;11.866;2023-05-10T08:14:41;16.10;99.90
26182;DHT22;13927;51.534;11.866;2023-05-10T08:17:07;16.10;99.90
26182;DHT22;13927;51.534;11.866;2023-05-10T08:19:33;16.10;99.90
26182;DHT22;13927;51.534;11.866;2023-05-10T08:21:59;16.10;99.90
26182;DHT22;13927;51.534;11.866;2023-05-10T08:24:25;16.00;99.90
26182;DHT22;13927;51.534;11.866;2023-05-10T08:26:51;15.90;99.90
26182;DHT22;13927;51.534;11.866;2023-05-10T08:29:18;15.90;99.90
26182;DHT22;13927;51.534;11.866;2023-05-10T08:31:44;15.90;99.90
26182;DHT22;13927;51.534;11.866;2023-05-10T08:34:10;15.80;99.90
26182;DHT22;13927;51.534;11.866;2023-05-10T08:36:37;15.80;99.90
26182;DHT22;13927;51.534;11.866;2023-05-10T08:39:03;15.90;99.90
26182;DHT22;13927;51.534;11.866;2023-05-10T08:41:30;16.00;99.90
26182;DHT22;13927;51.534;11.866;2023-05-10T08:43:59;16.00;99.90
26182;DHT22;13927;51.534;11.866;2023-05-10T08:46:32;16.10;99.90
26182;DHT22;13927;51.534;11.866;2023-05-10T08:49:04;16.20;99.90
26182;DHT22;13927;51.534;11.866;2023-05-10T08:51:36;16.30;99.90
26182;DHT22;13927;51.534;11.866;2023-05-10T08:54:03;16.50;99.90
26182;DHT22;13927;51.534;11.866;2023-05-10T08:56:31;16.60;99.90
26182;DHT22;13927;51.534;11.866;2023-05-10T08:58:57;16.70;99.90
26182;DHT22;13927;51.534;11.866;2023-05-10T09:01:24;16.70;99.90
26182;DHT22;13927;51.534;11.866;2023-05-10T09:03:51;16.80;99.90
26182;DHT22;13927;51.534;11.866;2023-05-10T09:06:18;16.90;99.90
26182;DHT22;13927;51.534;11.866;2023-05-10T09:08:45;16.90;99.90
26182;DHT22;13927;51.534;11.866;2023-05-10T09:11:12;16.80;99.90
26182;DHT22;13927;51.534;11.866;2023-05-10T09:13:39;16.80;99.90
26182;DHT22;13927;51.534;11.866;2023-05-10T09:16:05;16.60;99.90
26182;DHT22;13927;51.534;11.866;2023-05-10T09:18:32;16.50;99.90
26182;DHT22;13927;51.534;11.866;2023-05-10T09:20:58;16.60;99.90
26182;DHT22;13927;51.534;11.866;2023-05-10T09:23:24;16.60;99.90
26182;DHT22;13927;51.534;11.866;2023-05-10T09:26:06;16.60;99.90
26182;DHT22;13927;51.534;11.866;2023-05-10T09:28:55;16.60;99.90
26182;DHT22;13927;51.534;11.866;2023-05-10T09:31:23;16.60;99.90
26182;DHT22;13927;51.534;11.866;2023-05-10T09:33:51;16.60;99.90
26182;DHT22;13927;51.534;11.866;2023-05-10T09:36:17;16.60;99.90
26182;DHT22;13927;51.534;11.866;2023-05-10T09:38:51;16.60;99.90
26182;DHT22;13927;51.534;11.866;2023-05-10T09:41:24;16.60;99.90
26182;DHT22;13927;51.534;11.866;2023-05-10T09:43:55;16.50;99.90
26182;DHT22;13927;51.534;11.866;2023-05-10T09:46:22;16.40;99.90
26182;DHT22;13927;51.534;11.866;2023-05-10T09:48:48;16.40;99.90
26182;DHT22;13927;51.534;11.866;2023-05-10T09:51:21;16.40;99.90
26182;DHT22;13927;51.534;11.866;2023-05-10T09:53:48;16.50;99.90
26182;DHT22;13927;51.534;11.866;2023-05-10T09:56:48;16.60;99.90
26182;DHT22;13927;51.534;11.866;2023-05-10T09:59:14;16.70;99.90
26182;DHT22;13927;51.534;11.866;2023-05-10T10:01:40;16.90;99.90
26182;DHT22;13927;51.534;11.866;2023-05-10T10:04:08;17.10;99.90
26182;DHT22;13927;51.534;11.866;2023-05-10T10:06:40;17.20;99.90
26182;DHT22;13927;51.534;11.866;2023-05-10T10:09:07;17.30;99.90
26182;DHT22;13927;51.534;11.866;2023-05-10T10:11:36;17.30;99.90
26182;DHT22;13927;51.534;11.866;2023-05-10T10:14:03;17.30;99.90
26182;DHT22;13927;51.534;11.866;2023-05-10T10:16:30;17.40;99.90
26182;DHT22;13927;51.534;11.866;2023-05-10T10:18:58;17.50;99.90
26182;DHT22;13927;51.534;11.866;2023-05-10T10:21:24;17.50;99.90
26182;DHT22;13927;51.534;11.866;2023-05-10T10:23:51;17.50;99.90
26182;DHT22;13927;51.534;11.866;2023-05-10T10:26:19;17.50;99.90
26182;DHT22;13927;51.534;11.866;2023-05-10T10:32:38;17.40;99.90
26182;DHT22;13927;51.534;11.866;2023-05-10T10:35:08;17.30;99.90
26182;DHT22;13927;51.534;11.866;2023-05-10T10:37:44;17.20;99.90
26182;DHT22;13927;51.534;11.866;2023-05-10T10:40:28;17.30;99.90
26182;DHT22;13927;51.534;11.866;2023-05-10T10:42:56;17.40;99.90
26182;DHT22;13927;51.534;11.866;2023-05-10T10:45:24;17.40;99.90
26182;DHT22;13927;51.534;11.866;2023-05-10T10:48:20;17.40;99.90
26182;DHT22;13927;51.534;11.866;2023-05-10T10:50:47;17.50;99.90
26182;DHT22;13927;51.534;11.866;2023-05-10T10:53:13;17.60;99.90
26182;DHT22;13927;51.534;11.866;2023-05-10T10:55:48;17.60;99.90
26182;DHT22;13927;51.534;11.866;2023-05-10T10:58:30;17.80;99.90
26182;DHT22;13927;51.534;11.866;2023-05-10T11:01:17;17.90;99.90
26182;DHT22;13927;51.534;11.866;2023-05-10T11:06:33;17.90;99.90
26182;DHT22;13927;51.534;11.866;2023-05-10T11:09:08;17.90;99.90
26182;DHT22;13927;51.534;11.866;2023-05-10T11:11:36;18.00;99.90
26182;DHT22;13927;51.534;11.866;2023-05-10T11:14:14;18.10;99.90
26182;DHT22;13927;51.534;11.866;2023-05-10T11:16:46;18.20;99.90
26182;DHT22;13927;51.534;11.866;2023-05-10T11:19:13;18.20;99.90
26182;DHT22;13927;51.534;11.866;2023-05-10T11:24:32;18.50;99.90
26182;DHT22;13927;51.534;11.866;2023-05-10T11:26:59;18.70;99.90
26182;DHT22;13927;51.534;11.866;2023-05-10T11:29:26;18.80;99.90
26182;DHT22;13927;51.534;11.866;2023-05-10T11:31:52;19.00;99.90
26182;DHT22;13927;51.534;11.866;2023-05-10T11:34:26;19.10;99.90
26182;DHT22;13927;51.534;11.866;2023-05-10T11:36:57;19.20;99.90
26182;DHT22;13927;51.534;11.866;2023-05-10T11:39:27;19.50;99.90
26182;DHT22;13927;51.534;11.866;2023-05-10T11:41:55;19.80;99.90
26182;DHT22;13927;51.534;11.866;2023-05-10T11:44:21;20.00;99.90
26182;DHT22;13927;51.534;11.866;2023-05-10T11:46:49;20.10;99.90
26182;DHT22;13927;51.534;11.866;2023-05-10T11:49:15;20.20;99.90
26182;DHT22;13927;51.534;11.866;2023-05-10T11:51:41;20.20;99.90
26182;DHT22;13927;51.534;11.866;2023-05-10T11:54:10;20.20;99.90
26182;DHT22;13927;51.534;11.866;2023-05-10T11:56:38;20.10;99.90
26182;DHT22;13927;51.534;11.866;2023-05-10T11:59:04;19.90;99.90
26182;DHT22;13927;51.534;11.866;2023-05-10T12:01:31;19.70;99.90
26182;DHT22;13927;51.534;11.866;2023-05-10T12:03:58;19.50;99.90
26182;DHT22;13927;51.534;11.866;2023-05-10T12:06:32;19.40;99.90
26182;DHT22;13927;51.534;11.866;2023-05-10T12:09:07;19.30;99.90
26182;DHT22;13927;51.534;11.866;2023-05-10T12:11:38;19.20;99.90
26182;DHT22;13927;51.534;11.866;2023-05-10T12:14:08;19.10;99.90
26182;DHT22;13927;51.534;11.866;2023-05-10T12:16:35;19.10;99.90
26182;DHT22;13927;51.534;11.866;2023-05-10T12:19:02;19.10;99.90
26182;DHT22;13927;51.534;11.866;2023-05-10T12:21:29;19.10;99.90
26182;DHT22;13927;51.534;11.866;2023-05-10T12:24:01;19.10;99.90
26182;DHT22;13927;51.534;11.866;2023-05-10T12:26:29;19.10;99.90
26182;DHT22;13927;51.534;11.866;2023-05-10T12:29:11;19.10;99.90
26182;DHT22;13927;51.534;11.866;2023-05-10T12:32:07;19.20;99.90
26182;DHT22;13927;51.534;11.866;2023-05-10T12:34:34;19.30;99.90
26182;DHT22;13927;51.534;11.866;2023-05-10T12:37:02;19.30;99.90
26182;DHT22;13927;51.534;11.866;2023-05-10T12:39:43;19.30;99.90
26182;DHT22;13927;51.534;11.866;2023-05-10T12:42:10;19.40;99.90
26182;DHT22;13927;51.534;11.866;2023-05-10T12:44:36;19.40;99.90
26182;DHT22;13927;51.534;11.866;2023-05-10T12:47:02;19.60;99.90
26182;DHT22;13927;51.534;11.866;2023-05-10T12:49:28;19.60;99.90
26182;DHT22;13927;51.534;11.866;2023-05-10T12:51:54;19.70;99.90
26182;DHT22;13927;51.534;11.866;2023-05-10T12:54:20;19.80;99.90
26182;DHT22;13927;51.534;11.866;2023-05-10T12:56:46;19.80;99.90
26182;DHT22;13927;51.534;11.866;2023-05-10T12:59:12;19.80;99.90
26182;DHT22;13927;51.534;11.866;2023-05-10T13:01:38;19.80;99.90
26182;DHT22;13927;51.534;11.866;2023-05-10T13:04:04;19.70;99.90
26182;DHT22;13927;51.534;11.866;2023-05-10T13:06:30;19.50;99.90
26182;DHT22;13927;51.534;11.866;2023-05-10T13:08:57;19.50;99.90
26182;DHT22;13927;51.534;11.866;2023-05-10T13:11:23;19.40;99.90
26182;DHT22;13927;51.534;11.866;2023-05-10T13:13:49;19.40;99.90
26182;DHT22;13927;51.534;11.866;2023-05-10T13:16:15;19.50;99.90
26182;DHT22;13927;51.534;11.866;2023-05-10T13:18:41;19.40;99.90
26182;DHT22;13927;51.534;11.866;2023-05-10T13:21:07;19.40;99.90
26182;DHT22;13927;51.534;11.866;2023-05-10T13:23:34;19.50;99.90
26182;DHT22;13927;51.534;11.866;2023-05-10T13:26:00;19.50;99.90
26182;DHT22;13927;51.534;11.866;2023-05-10T13:28:26;19.50;99.90
26182;DHT22;13927;51.534;11.866;2023-05-10T13:30:52;19.60;99.90
26182;DHT22;13927;51.534;11.866;2023-05-10T13:33:18;19.60;99.90
26182;DHT22;13927;51.534;11.866;2023-05-10T13:35:44;19.70;99.90
26182;DHT22;13927;51.534;11.866;2023-05-10T13:38:11;19.90;99.90
26182;DHT22;13927;51.534;11.866;2023-05-10T13:40:37;20.20;99.90
26182;DHT22;13927;51.534;11.866;2023-05-10T13:43:03;20.40;99.90
26182;DHT22;13927;51.534;11.866;2023-05-10T13:45:30;20.50;99.90
26182;DHT22;13927;51.534;11.866;2023-05-10T13:47:56;20.60;99.90
26182;DHT22;13927;51.534;11.866;2023-05-10T13:50:23;20.70;99.90
26182;DHT22;13927;51.534;11.866;2023-05-10T13:52:49;20.70;99.90
26182;DHT22;13927;51.534;11.866;2023-05-10T13:55:15;20.80;99.90
26182;DHT22;13927;51.534;11.866;2023-05-10T13:57:41;20.90;99.90
26182;DHT22;13927;51.534;11.866;2023-05-10T14:00:09;21.10;99.90
26182;DHT22;13927;51.534;11.866;2023-05-10T14:02:36;21.30;99.90
26182;DHT22;13927;51.534;11.866;2023-05-10T14:05:02;21.50;99.90
26182;DHT22;13927;51.534;11.866;2023-05-10T14:07:28;21.60;99.90
26182;DHT22;13927;51.534;11.866;2023-05-10T14:09:54;21.80;99.90
26182;DHT22;13927;51.534;11.866;2023-05-10T14:12:20;21.90;99.90
26182;DHT22;13927;51.534;11.866;2023-05-10T14:14:46;22.00;99.90
26182;DHT22;13927;51.534;11.866;2023-05-10T14:17:12;22.10;99.90
26182;DHT22;13927;51.534;11.866;2023-05-10T14:22:04;22.20;99.90
26182;DHT22;13927;51.534;11.866;2023-05-10T14:24:31;22.20;99.90
26182;DHT22;13927;51.534;11.866;2023-05-10T14:26:57;22.20;99.90
26182;DHT22;13927;51.534;11.866;2023-05-10T14:29:23;22.00;99.90
26182;DHT22;13927;51.534;11.866;2023-05-10T14:31:49;21.90;99.90
26182;DHT22;13927;51.534;11.866;2023-05-10T14:34:15;21.90;99.90
26182;DHT22;13927;51.534;11.866;2023-05-10T14:36:42;21.80;99.90
26182;DHT22;13927;51.534;11.866;2023-05-10T14:39:08;21.70;99.90
26182;DHT22;13927;51.534;11.866;2023-05-10T14:41:35;21.60;99.90
26182;DHT22;13927;51.534;11.866;2023-05-10T14:44:02;21.60;99.90
26182;DHT22;13927;51.534;11.866;2023-05-10T14:46:28;21.60;99.90
26182;DHT22;13927;51.534;11.866;2023-05-10T14:48:55;21.60;99.90
26182;DHT22;13927;51.534;11.866;2023-05-10T14:51:21;21.60;99.90
26182;DHT22;13927;51.534;11.866;2023-05-10T14:53:50;21.50;99.90
26182;DHT22;13927;51.534;11.866;2023-05-10T14:56:16;21.40;99.90
26182;DHT22;13927;51.534;11.866;2023-05-10T14:58:42;21.40;99.90
26182;DHT22;13927;51.534;11.866;2023-05-10T15:01:08;21.40;99.90
26182;DHT22;13927;51.534;11.866;2023-05-10T15:03:34;21.40;99.90
26182;DHT22;13927;51.534;11.866;2023-05-10T15:06:01;21.20;99.90
26182;DHT22;13927;51.534;11.866;2023-05-10T15:08:27;21.30;99.90
26182;DHT22;13927;51.534;11.866;2023-05-10T15:10:54;21.30;99.90
26182;DHT22;13927;51.534;11.866;2023-05-10T15:13:21;21.20;99.90
26182;DHT22;13927;51.534;11.866;2023-05-10T15:15:47;21.10;99.90
26182;DHT22;13927;51.534;11.866;2023-05-10T15:18:13;20.90;99.90
26182;DHT22;13927;51.534;11.866;2023-05-10T15:20:40;20.80;99.90
26182;DHT22;13927;51.534;11.866;2023-05-10T15:23:06;20.70;99.90
26182;DHT22;13927;51.534;11.866;2023-05-10T15:25:32;20.70;99.90
26182;DHT22;13927;51.534;11.866;2023-05-10T15:28:03;20.70;99.90
26182;DHT22;13927;51.534;11.866;2023-05-10T15:30:30;20.70;99.90
26182;DHT22;13927;51.534;11.866;2023-05-10T15:32:57;20.70;99.90
26182;DHT22;13927;51.534;11.866;2023-05-10T15:35:23;20.60;99.90
26182;DHT22;13927;51.534;11.866;2023-05-10T15:37:49;20.50;99.90
26182;DHT22;13927;51.534;11.866;2023-05-10T15:40:15;20.50;99.90
26182;DHT22;13927;51.534;11.866;2023-05-10T15:42:40;20.40;99.90
26182;DHT22;13927;51.534;11.866;2023-05-10T15:45:07;20.20;99.90
26182;DHT22;13927;51.534;11.866;2023-05-10T15:47:33;20.20;99.90